sensor_id;sensor_type;location;lat;lon;timestamp;P1;durP1;ratioP1;P2;durP2;ratioP2
8694;SDS011;65580;49.446;6.854;2022-12-29T00:02:20;7.85;;;2.60;;
8694;SDS011;65580;49.446;6.854;2022-12-29T00:06:30;8.13;;;2.72;;
8694;SDS011;65580;49.446;6.854;2022-12-29T00:10:41;5.90;;;2.70;;
8694;SDS011;65580;49.446;6.854;2022-12-29T00:14:46;6.28;;;2.47;;
8694;SDS011;65580;49.446;6.854;2022-12-29T00:19:07;6.80;;;2.95;;
8694;SDS011;65580;49.446;6.854;2022-12-29T00:23:37;9.82;;;3.10;;
8694;SDS011;65580;49.446;6.854;2022-12-29T00:27:57;8.73;;;3.70;;
8694;SDS011;65580;49.446;6.854;2022-12-29T00:32:21;10.45;;;3.92;;
8694;SDS011;65580;49.446;6.854;2022-12-29T00:36:59;10.82;;;3.92;;
8694;SDS011;65580;49.446;6.854;2022-12-29T00:41:04;10.23;;;4.20;;
8694;SDS011;65580;49.446;6.854;2022-12-29T00:45:30;8.65;;;3.90;;
8694;SDS011;65580;49.446;6.854;2022-12-29T00:49:36;9.00;;;3.38;;
8694;SDS011;65580;49.446;6.854;2022-12-29T00:53:39;8.75;;;3.00;;
8694;SDS011;65580;49.446;6.854;2022-12-29T00:57:53;10.80;;;3.30;;
8694;SDS011;65580;49.446;6.854;2022-12-29T01:01:59;9.23;;;2.90;;
8694;SDS011;65580;49.446;6.854;2022-12-29T01:06:05;4.63;;;2.42;;
8694;SDS011;65580;49.446;6.854;2022-12-29T01:10:26;9.02;;;2.75;;
8694;SDS011;65580;49.446;6.854;2022-12-29T01:14:29;7.80;;;2.42;;
8694;SDS011;65580;49.446;6.854;2022-12-29T01:18:39;7.50;;;2.10;;
8694;SDS011;65580;49.446;6.854;2022-12-29T01:22:46;4.85;;;2.20;;
8694;SDS011;65580;49.446;6.854;2022-12-29T01:26:49;3.83;;;1.80;;
8694;SDS011;65580;49.446;6.854;2022-12-29T01:30:52;3.25;;;1.75;;
8694;SDS011;65580;49.446;6.854;2022-12-29T01:34:56;5.50;;;1.80;;
8694;SDS011;65580;49.446;6.854;2022-12-29T01:39:01;4.88;;;1.70;;
8694;SDS011;65580;49.446;6.854;2022-12-29T01:43:09;3.92;;;1.80;;
8694;SDS011;65580;49.446;6.854;2022-12-29T01:47:14;5.10;;;1.52;;
8694;SDS011;65580;49.446;6.854;2022-12-29T01:51:25;2.17;;;1.60;;
8694;SDS011;65580;49.446;6.854;2022-12-29T01:55:49;4.38;;;1.50;;
8694;SDS011;65580;49.446;6.854;2022-12-29T01:59:58;4.93;;;1.85;;
8694;SDS011;65580;49.446;6.854;2022-12-29T02:08:26;3.58;;;1.40;;
8694;SDS011;65580;49.446;6.854;2022-12-29T02:12:35;5.32;;;1.70;;
8694;SDS011;65580;49.446;6.854;2022-12-29T02:16:42;3.72;;;1.60;;
8694;SDS011;65580;49.446;6.854;2022-12-29T02:25:49;5.38;;;1.73;;
8694;SDS011;65580;49.446;6.854;2022-12-29T02:30:07;2.13;;;1.38;;
8694;SDS011;65580;49.446;6.854;2022-12-29T02:34:18;3.53;;;1.67;;
8694;SDS011;65580;49.446;6.854;2022-12-29T02:38:40;3.97;;;1.67;;
8694;SDS011;65580;49.446;6.854;2022-12-29T02:42:59;5.95;;;1.60;;
8694;SDS011;65580;49.446;6.854;2022-12-29T02:47:14;7.53;;;1.60;;
8694;SDS011;65580;49.446;6.854;2022-12-29T02:51:27;5.15;;;1.60;;
8694;SDS011;65580;49.446;6.854;2022-12-29T02:55:34;5.70;;;1.77;;
8694;SDS011;65580;49.446;6.854;2022-12-29T02:59:38;4.53;;;1.70;;
8694;SDS011;65580;49.446;6.854;2022-12-29T03:03:45;2.78;;;1.58;;
8694;SDS011;65580;49.446;6.854;2022-12-29T03:07:55;3.20;;;1.70;;
8694;SDS011;65580;49.446;6.854;2022-12-29T03:12:03;3.97;;;1.67;;
8694;SDS011;65580;49.446;6.854;2022-12-29T03:16:15;3.85;;;1.60;;
8694;SDS011;65580;49.446;6.854;2022-12-29T03:20:23;2.35;;;1.48;;
8694;SDS011;65580;49.446;6.854;2022-12-29T03:28:57;2.40;;;1.70;;
8694;SDS011;65580;49.446;6.854;2022-12-29T03:33:00;3.00;;;1.70;;
8694;SDS011;65580;49.446;6.854;2022-12-29T03:37:06;5.43;;;2.00;;
8694;SDS011;65580;49.446;6.854;2022-12-29T03:41:16;4.65;;;2.08;;
8694;SDS011;65580;49.446;6.854;2022-12-29T03:45:32;5.13;;;2.22;;
8694;SDS011;65580;49.446;6.854;2022-12-29T03:49:37;3.72;;;1.75;;
8694;SDS011;65580;49.446;6.854;2022-12-29T03:53:41;5.10;;;1.92;;
8694;SDS011;65580;49.446;6.854;2022-12-29T03:57:52;4.80;;;2.10;;
8694;SDS011;65580;49.446;6.854;2022-12-29T04:02:20;6.35;;;2.17;;
8694;SDS011;65580;49.446;6.854;2022-12-29T04:06:25;4.88;;;2.35;;
8694;SDS011;65580;49.446;6.854;2022-12-29T04:10:28;4.70;;;2.20;;
8694;SDS011;65580;49.446;6.854;2022-12-29T04:14:40;4.50;;;2.13;;
8694;SDS011;65580;49.446;6.854;2022-12-29T04:18:55;5.53;;;2.17;;
8694;SDS011;65580;49.446;6.854;2022-12-29T04:23:02;5.93;;;2.00;;
8694;SDS011;65580;49.446;6.854;2022-12-29T04:27:05;2.67;;;1.73;;
8694;SDS011;65580;49.446;6.854;2022-12-29T04:31:10;8.07;;;1.92;;
8694;SDS011;65580;49.446;6.854;2022-12-29T04:35:14;4.82;;;1.80;;
8694;SDS011;65580;49.446;6.854;2022-12-29T04:43:21;4.97;;;2.00;;
8694;SDS011;65580;49.446;6.854;2022-12-29T04:47:42;4.05;;;1.98;;
8694;SDS011;65580;49.446;6.854;2022-12-29T04:51:46;4.57;;;1.92;;
8694;SDS011;65580;49.446;6.854;2022-12-29T04:55:51;4.65;;;1.58;;
8694;SDS011;65580;49.446;6.854;2022-12-29T04:59:56;5.20;;;2.10;;
8694;SDS011;65580;49.446;6.854;2022-12-29T05:04:01;3.08;;;1.70;;
8694;SDS011;65580;49.446;6.854;2022-12-29T05:08:05;3.78;;;1.55;;
8694;SDS011;65580;49.446;6.854;2022-12-29T05:12:09;3.65;;;1.70;;
8694;SDS011;65580;49.446;6.854;2022-12-29T05:16:14;7.88;;;2.10;;
8694;SDS011;65580;49.446;6.854;2022-12-29T05:20:19;3.47;;;2.00;;
8694;SDS011;65580;49.446;6.854;2022-12-29T05:24:22;6.68;;;1.90;;
8694;SDS011;65580;49.446;6.854;2022-12-29T05:28:25;4.13;;;1.75;;
8694;SDS011;65580;49.446;6.854;2022-12-29T05:32:29;6.35;;;1.45;;
8694;SDS011;65580;49.446;6.854;2022-12-29T05:36:35;2.45;;;1.33;;
8694;SDS011;65580;49.446;6.854;2022-12-29T05:40:38;2.47;;;1.50;;
8694;SDS011;65580;49.446;6.854;2022-12-29T05:44:41;3.60;;;1.58;;
8694;SDS011;65580;49.446;6.854;2022-12-29T05:48:44;17.20;;;6.53;;
8694;SDS011;65580;49.446;6.854;2022-12-29T05:52:49;12.85;;;5.72;;
8694;SDS011;65580;49.446;6.854;2022-12-29T05:56:53;2.20;;;1.50;;
8694;SDS011;65580;49.446;6.854;2022-12-29T06:00:56;4.93;;;1.70;;
8694;SDS011;65580;49.446;6.854;2022-12-29T06:04:59;4.75;;;1.83;;
8694;SDS011;65580;49.446;6.854;2022-12-29T06:09:08;6.60;;;2.10;;
8694;SDS011;65580;49.446;6.854;2022-12-29T06:13:22;7.50;;;2.42;;
8694;SDS011;65580;49.446;6.854;2022-12-29T06:17:26;10.00;;;2.88;;
8694;SDS011;65580;49.446;6.854;2022-12-29T06:21:31;5.32;;;2.83;;
8694;SDS011;65580;49.446;6.854;2022-12-29T06:25:37;7.18;;;2.67;;
8694;SDS011;65580;49.446;6.854;2022-12-29T06:29:41;6.38;;;2.20;;
8694;SDS011;65580;49.446;6.854;2022-12-29T06:33:49;10.88;;;2.00;;
8694;SDS011;65580;49.446;6.854;2022-12-29T06:37:53;5.38;;;2.13;;
8694;SDS011;65580;49.446;6.854;2022-12-29T06:42:10;3.70;;;2.20;;
8694;SDS011;65580;49.446;6.854;2022-12-29T06:46:14;4.78;;;1.95;;
8694;SDS011;65580;49.446;6.854;2022-12-29T06:50:20;7.25;;;2.38;;
8694;SDS011;65580;49.446;6.854;2022-12-29T06:54:26;4.72;;;2.53;;
8694;SDS011;65580;49.446;6.854;2022-12-29T06:58:31;7.03;;;2.75;;
8694;SDS011;65580;49.446;6.854;2022-12-29T07:02:34;5.18;;;2.40;;
8694;SDS011;65580;49.446;6.854;2022-12-29T07:06:37;6.13;;;2.53;;
8694;SDS011;65580;49.446;6.854;2022-12-29T07:10:42;3.95;;;2.35;;
8694;SDS011;65580;49.446;6.854;2022-12-29T07:14:48;7.13;;;2.65;;
8694;SDS011;65580;49.446;6.854;2022-12-29T07:18:52;5.55;;;2.65;;
8694;SDS011;65580;49.446;6.854;2022-12-29T07:22:56;8.75;;;2.83;;
8694;SDS011;65580;49.446;6.854;2022-12-29T07:26:58;6.25;;;2.90;;
8694;SDS011;65580;49.446;6.854;2022-12-29T07:31:03;7.68;;;3.30;;
8694;SDS011;65580;49.446;6.854;2022-12-29T07:35:07;6.97;;;3.30;;
8694;SDS011;65580;49.446;6.854;2022-12-29T07:39:11;7.78;;;2.97;;
8694;SDS011;65580;49.446;6.854;2022-12-29T07:43:14;8.60;;;3.17;;
8694;SDS011;65580;49.446;6.854;2022-12-29T07:47:29;5.97;;;2.90;;
8694;SDS011;65580;49.446;6.854;2022-12-29T07:51:38;8.20;;;3.13;;
8694;SDS011;65580;49.446;6.854;2022-12-29T07:55:41;10.05;;;3.45;;
8694;SDS011;65580;49.446;6.854;2022-12-29T07:59:44;8.68;;;3.05;;
8694;SDS011;65580;49.446;6.854;2022-12-29T08:03:49;9.15;;;2.70;;
8694;SDS011;65580;49.446;6.854;2022-12-29T08:07:57;6.15;;;3.03;;
8694;SDS011;65580;49.446;6.854;2022-12-29T08:12:01;5.03;;;2.58;;
8694;SDS011;65580;49.446;6.854;2022-12-29T08:16:04;4.70;;;2.50;;
8694;SDS011;65580;49.446;6.854;2022-12-29T08:20:10;6.72;;;2.58;;
8694;SDS011;65580;49.446;6.854;2022-12-29T08:24:15;6.13;;;2.50;;
8694;SDS011;65580;49.446;6.854;2022-12-29T08:28:19;5.43;;;2.50;;
8694;SDS011;65580;49.446;6.854;2022-12-29T08:32:23;9.90;;;2.85;;
8694;SDS011;65580;49.446;6.854;2022-12-29T08:36:30;5.72;;;2.30;;
8694;SDS011;65580;49.446;6.854;2022-12-29T08:40:34;6.63;;;2.40;;
8694;SDS011;65580;49.446;6.854;2022-12-29T08:44:37;7.10;;;2.60;;
8694;SDS011;65580;49.446;6.854;2022-12-29T08:48:40;7.20;;;2.72;;
8694;SDS011;65580;49.446;6.854;2022-12-29T08:52:44;3.55;;;2.03;;
8694;SDS011;65580;49.446;6.854;2022-12-29T08:56:51;6.05;;;2.00;;
8694;SDS011;65580;49.446;6.854;2022-12-29T09:00:55;6.22;;;2.20;;
8694;SDS011;65580;49.446;6.854;2022-12-29T09:05:04;5.10;;;2.30;;
8694;SDS011;65580;49.446;6.854;2022-12-29T09:09:10;6.53;;;2.20;;
8694;SDS011;65580;49.446;6.854;2022-12-29T09:13:17;9.45;;;2.20;;
8694;SDS011;65580;49.446;6.854;2022-12-29T09:22:01;4.97;;;2.05;;
8694;SDS011;65580;49.446;6.854;2022-12-29T09:26:10;3.67;;;1.77;;
8694;SDS011;65580;49.446;6.854;2022-12-29T09:30:13;4.00;;;1.75;;
8694;SDS011;65580;49.446;6.854;2022-12-29T09:34:17;4.32;;;1.55;;
8694;SDS011;65580;49.446;6.854;2022-12-29T09:38:19;7.93;;;1.50;;
8694;SDS011;65580;49.446;6.854;2022-12-29T09:46:44;3.63;;;1.27;;
8694;SDS011;65580;49.446;6.854;2022-12-29T09:50:50;2.88;;;1.10;;
8694;SDS011;65580;49.446;6.854;2022-12-29T09:54:56;2.42;;;1.13;;
8694;SDS011;65580;49.446;6.854;2022-12-29T09:59:17;3.10;;;1.05;;
8694;SDS011;65580;49.446;6.854;2022-12-29T10:03:24;3.22;;;1.23;;
8694;SDS011;65580;49.446;6.854;2022-12-29T10:07:45;3.28;;;1.20;;
8694;SDS011;65580;49.446;6.854;2022-12-29T10:11:59;3.22;;;1.20;;
8694;SDS011;65580;49.446;6.854;2022-12-29T10:16:09;3.33;;;1.20;;
8694;SDS011;65580;49.446;6.854;2022-12-29T10:20:18;3.25;;;1.30;;
8694;SDS011;65580;49.446;6.854;2022-12-29T10:24:28;7.10;;;2.90;;
8694;SDS011;65580;49.446;6.854;2022-12-29T10:28:33;3.88;;;1.40;;
8694;SDS011;65580;49.446;6.854;2022-12-29T10:32:41;3.38;;;1.58;;
8694;SDS011;65580;49.446;6.854;2022-12-29T10:37:03;5.60;;;2.33;;
8694;SDS011;65580;49.446;6.854;2022-12-29T10:41:17;4.18;;;1.70;;
8694;SDS011;65580;49.446;6.854;2022-12-29T10:45:25;8.20;;;1.85;;
8694;SDS011;65580;49.446;6.854;2022-12-29T10:49:39;4.82;;;1.40;;
8694;SDS011;65580;49.446;6.854;2022-12-29T10:53:47;6.07;;;1.50;;
8694;SDS011;65580;49.446;6.854;2022-12-29T10:57:57;6.47;;;1.42;;
8694;SDS011;65580;49.446;6.854;2022-12-29T11:02:19;5.60;;;1.60;;
8694;SDS011;65580;49.446;6.854;2022-12-29T11:07:06;5.40;;;1.83;;
8694;SDS011;65580;49.446;6.854;2022-12-29T11:11:22;8.57;;;1.92;;
8694;SDS011;65580;49.446;6.854;2022-12-29T11:15:58;4.32;;;1.20;;
8694;SDS011;65580;49.446;6.854;2022-12-29T11:20:28;6.63;;;1.40;;
8694;SDS011;65580;49.446;6.854;2022-12-29T11:24:44;6.97;;;1.33;;
8694;SDS011;65580;49.446;6.854;2022-12-29T11:29:08;7.65;;;1.27;;
8694;SDS011;65580;49.446;6.854;2022-12-29T11:33:27;6.15;;;1.38;;
8694;SDS011;65580;49.446;6.854;2022-12-29T11:37:42;4.05;;;1.85;;
8694;SDS011;65580;49.446;6.854;2022-12-29T11:41:51;4.10;;;1.25;;
8694;SDS011;65580;49.446;6.854;2022-12-29T11:46:13;4.97;;;1.30;;
8694;SDS011;65580;49.446;6.854;2022-12-29T11:50:22;6.75;;;2.13;;
8694;SDS011;65580;49.446;6.854;2022-12-29T11:54:31;7.53;;;1.42;;
8694;SDS011;65580;49.446;6.854;2022-12-29T11:58:57;6.88;;;1.30;;
8694;SDS011;65580;49.446;6.854;2022-12-29T12:03:18;7.40;;;1.52;;
8694;SDS011;65580;49.446;6.854;2022-12-29T12:07:28;6.28;;;1.10;;
8694;SDS011;65580;49.446;6.854;2022-12-29T12:11:44;3.05;;;1.17;;
8694;SDS011;65580;49.446;6.854;2022-12-29T12:15:59;6.47;;;1.10;;
8694;SDS011;65580;49.446;6.854;2022-12-29T12:20:14;3.80;;;1.20;;
8694;SDS011;65580;49.446;6.854;2022-12-29T12:24:34;3.65;;;0.98;;
8694;SDS011;65580;49.446;6.854;2022-12-29T12:28:59;7.07;;;1.20;;
8694;SDS011;65580;49.446;6.854;2022-12-29T12:33:22;7.32;;;1.10;;
8694;SDS011;65580;49.446;6.854;2022-12-29T12:37:43;5.05;;;1.05;;
8694;SDS011;65580;49.446;6.854;2022-12-29T12:42:19;6.13;;;1.15;;
8694;SDS011;65580;49.446;6.854;2022-12-29T12:46:49;5.25;;;0.95;;
8694;SDS011;65580;49.446;6.854;2022-12-29T12:51:05;3.33;;;0.63;;
8694;SDS011;65580;49.446;6.854;2022-12-29T13:00:04;4.15;;;0.90;;
8694;SDS011;65580;49.446;6.854;2022-12-29T13:04:21;5.30;;;1.10;;
8694;SDS011;65580;49.446;6.854;2022-12-29T13:08:59;6.05;;;1.20;;
8694;SDS011;65580;49.446;6.854;2022-12-29T13:13:22;9.65;;;1.02;;
8694;SDS011;65580;49.446;6.854;2022-12-29T13:17:42;8.35;;;1.17;;
8694;SDS011;65580;49.446;6.854;2022-12-29T13:21:53;5.82;;;1.17;;
8694;SDS011;65580;49.446;6.854;2022-12-29T13:26:11;1.67;;;1.02;;
8694;SDS011;65580;49.446;6.854;2022-12-29T13:30:29;3.28;;;1.23;;
8694;SDS011;65580;49.446;6.854;2022-12-29T13:34:39;4.63;;;0.80;;
8694;SDS011;65580;49.446;6.854;2022-12-29T13:38:51;3.38;;;1.10;;
8694;SDS011;65580;49.446;6.854;2022-12-29T13:43:05;4.88;;;1.20;;
8694;SDS011;65580;49.446;6.854;2022-12-29T13:47:13;4.32;;;1.17;;
8694;SDS011;65580;49.446;6.854;2022-12-29T13:51:24;4.22;;;0.77;;
8694;SDS011;65580;49.446;6.854;2022-12-29T13:55:35;6.30;;;1.00;;
8694;SDS011;65580;49.446;6.854;2022-12-29T13:59:48;4.15;;;0.73;;
8694;SDS011;65580;49.446;6.854;2022-12-29T14:04:20;5.78;;;1.08;;
8694;SDS011;65580;49.446;6.854;2022-12-29T14:08:27;4.30;;;0.95;;
8694;SDS011;65580;49.446;6.854;2022-12-29T14:12:36;5.90;;;1.00;;
8694;SDS011;65580;49.446;6.854;2022-12-29T14:16:47;6.90;;;1.02;;
8694;SDS011;65580;49.446;6.854;2022-12-29T14:20:58;9.38;;;1.85;;
8694;SDS011;65580;49.446;6.854;2022-12-29T14:25:28;5.63;;;1.40;;
8694;SDS011;65580;49.446;6.854;2022-12-29T14:30:12;7.72;;;1.38;;
8694;SDS011;65580;49.446;6.854;2022-12-29T14:39:43;7.10;;;0.90;;
8694;SDS011;65580;49.446;6.854;2022-12-29T14:43:57;9.85;;;1.08;;
8694;SDS011;65580;49.446;6.854;2022-12-29T15:00:58;9.82;;;0.93;;
8694;SDS011;65580;49.446;6.854;2022-12-29T15:05:04;8.00;;;1.23;;
8694;SDS011;65580;49.446;6.854;2022-12-29T15:09:24;6.68;;;1.13;;
8694;SDS011;65580;49.446;6.854;2022-12-29T15:13:53;5.13;;;1.10;;
8694;SDS011;65580;49.446;6.854;2022-12-29T15:18:14;6.90;;;1.52;;
8694;SDS011;65580;49.446;6.854;2022-12-29T15:22:28;4.80;;;1.10;;
8694;SDS011;65580;49.446;6.854;2022-12-29T15:26:36;10.68;;;1.75;;
8694;SDS011;65580;49.446;6.854;2022-12-29T15:30:53;7.88;;;1.40;;
8694;SDS011;65580;49.446;6.854;2022-12-29T15:34:59;8.48;;;1.70;;
8694;SDS011;65580;49.446;6.854;2022-12-29T15:39:17;10.23;;;1.50;;
8694;SDS011;65580;49.446;6.854;2022-12-29T15:43:30;7.80;;;1.50;;
8694;SDS011;65580;49.446;6.854;2022-12-29T15:47:50;9.82;;;1.73;;
8694;SDS011;65580;49.446;6.854;2022-12-29T15:51:58;8.48;;;2.35;;
8694;SDS011;65580;49.446;6.854;2022-12-29T15:56:05;10.73;;;1.77;;
8694;SDS011;65580;49.446;6.854;2022-12-29T16:00:29;8.80;;;1.75;;
8694;SDS011;65580;49.446;6.854;2022-12-29T16:04:56;10.80;;;1.70;;
8694;SDS011;65580;49.446;6.854;2022-12-29T16:09:30;4.60;;;1.20;;
8694;SDS011;65580;49.446;6.854;2022-12-29T16:14:18;8.15;;;1.50;;
8694;SDS011;65580;49.446;6.854;2022-12-29T16:18:32;14.68;;;2.00;;
8694;SDS011;65580;49.446;6.854;2022-12-29T16:22:51;9.38;;;2.38;;
8694;SDS011;65580;49.446;6.854;2022-12-29T16:27:13;9.68;;;3.05;;
8694;SDS011;65580;49.446;6.854;2022-12-29T16:31:47;12.15;;;3.38;;
8694;SDS011;65580;49.446;6.854;2022-12-29T16:35:55;7.93;;;2.25;;
8694;SDS011;65580;49.446;6.854;2022-12-29T16:44:32;9.55;;;2.08;;
8694;SDS011;65580;49.446;6.854;2022-12-29T16:48:42;9.50;;;2.60;;
8694;SDS011;65580;49.446;6.854;2022-12-29T16:52:50;7.60;;;2.30;;
8694;SDS011;65580;49.446;6.854;2022-12-29T16:56:57;15.43;;;3.83;;
8694;SDS011;65580;49.446;6.854;2022-12-29T17:01:03;9.93;;;2.83;;
8694;SDS011;65580;49.446;6.854;2022-12-29T17:05:21;12.68;;;3.63;;
8694;SDS011;65580;49.446;6.854;2022-12-29T17:09:28;14.02;;;3.80;;
8694;SDS011;65580;49.446;6.854;2022-12-29T17:13:36;11.88;;;2.85;;
8694;SDS011;65580;49.446;6.854;2022-12-29T17:17:51;14.30;;;4.47;;
8694;SDS011;65580;49.446;6.854;2022-12-29T17:22:00;14.55;;;4.55;;
8694;SDS011;65580;49.446;6.854;2022-12-29T17:26:04;11.15;;;3.90;;
8694;SDS011;65580;49.446;6.854;2022-12-29T17:30:19;29.33;;;10.70;;
8694;SDS011;65580;49.446;6.854;2022-12-29T17:34:43;23.70;;;9.00;;
8694;SDS011;65580;49.446;6.854;2022-12-29T17:38:59;19.15;;;6.63;;
8694;SDS011;65580;49.446;6.854;2022-12-29T17:43:02;18.48;;;5.97;;
8694;SDS011;65580;49.446;6.854;2022-12-29T17:47:12;14.43;;;3.20;;
8694;SDS011;65580;49.446;6.854;2022-12-29T17:51:30;16.58;;;3.38;;
8694;SDS011;65580;49.446;6.854;2022-12-29T17:55:37;11.02;;;2.60;;
8694;SDS011;65580;49.446;6.854;2022-12-29T17:59:40;11.95;;;2.25;;
8694;SDS011;65580;49.446;6.854;2022-12-29T18:04:05;14.35;;;3.20;;
8694;SDS011;65580;49.446;6.854;2022-12-29T18:08:13;13.93;;;3.55;;
8694;SDS011;65580;49.446;6.854;2022-12-29T18:12:29;12.65;;;2.90;;
8694;SDS011;65580;49.446;6.854;2022-12-29T18:16:38;6.68;;;2.42;;
8694;SDS011;65580;49.446;6.854;2022-12-29T18:20:52;11.38;;;2.60;;
8694;SDS011;65580;49.446;6.854;2022-12-29T18:25:12;12.20;;;2.58;;
8694;SDS011;65580;49.446;6.854;2022-12-29T18:29:30;11.85;;;2.28;;
8694;SDS011;65580;49.446;6.854;2022-12-29T18:33:43;13.80;;;2.70;;
8694;SDS011;65580;49.446;6.854;2022-12-29T18:38:04;8.40;;;2.50;;
8694;SDS011;65580;49.446;6.854;2022-12-29T18:42:15;13.68;;;2.50;;
8694;SDS011;65580;49.446;6.854;2022-12-29T18:46:27;12.35;;;2.78;;
8694;SDS011;65580;49.446;6.854;2022-12-29T18:50:41;13.20;;;2.38;;
8694;SDS011;65580;49.446;6.854;2022-12-29T18:55:03;10.88;;;1.50;;
8694;SDS011;65580;49.446;6.854;2022-12-29T18:59:09;11.77;;;1.50;;
8694;SDS011;65580;49.446;6.854;2022-12-29T19:03:21;10.80;;;1.40;;
8694;SDS011;65580;49.446;6.854;2022-12-29T19:07:28;10.95;;;1.85;;
8694;SDS011;65580;49.446;6.854;2022-12-29T19:11:41;8.10;;;1.63;;
8694;SDS011;65580;49.446;6.854;2022-12-29T19:15:55;10.23;;;1.85;;
8694;SDS011;65580;49.446;6.854;2022-12-29T19:20:09;8.07;;;1.55;;
8694;SDS011;65580;49.446;6.854;2022-12-29T19:24:36;7.80;;;2.17;;
8694;SDS011;65580;49.446;6.854;2022-12-29T19:29:03;6.97;;;1.65;;
8694;SDS011;65580;49.446;6.854;2022-12-29T19:33:22;7.95;;;1.77;;
8694;SDS011;65580;49.446;6.854;2022-12-29T19:37:45;9.38;;;1.60;;
8694;SDS011;65580;49.446;6.854;2022-12-29T19:42:00;10.32;;;1.83;;
8694;SDS011;65580;49.446;6.854;2022-12-29T19:46:09;14.45;;;1.73;;
8694;SDS011;65580;49.446;6.854;2022-12-29T19:50:18;7.82;;;1.85;;
8694;SDS011;65580;49.446;6.854;2022-12-29T19:54:28;16.02;;;1.88;;
8694;SDS011;65580;49.446;6.854;2022-12-29T19:58:33;14.55;;;1.80;;
8694;SDS011;65580;49.446;6.854;2022-12-29T20:02:47;9.07;;;1.55;;
8694;SDS011;65580;49.446;6.854;2022-12-29T20:07:04;16.20;;;2.33;;
8694;SDS011;65580;49.446;6.854;2022-12-29T20:15:47;12.07;;;1.90;;
8694;SDS011;65580;49.446;6.854;2022-12-29T20:19:52;13.30;;;1.55;;
8694;SDS011;65580;49.446;6.854;2022-12-29T20:23:55;11.13;;;1.35;;
8694;SDS011;65580;49.446;6.854;2022-12-29T20:28:10;9.38;;;1.77;;
8694;SDS011;65580;49.446;6.854;2022-12-29T20:32:14;12.32;;;2.13;;
8694;SDS011;65580;49.446;6.854;2022-12-29T20:36:40;10.75;;;1.55;;
8694;SDS011;65580;49.446;6.854;2022-12-29T20:40:48;15.75;;;1.65;;
8694;SDS011;65580;49.446;6.854;2022-12-29T20:44:55;10.02;;;1.67;;
8694;SDS011;65580;49.446;6.854;2022-12-29T20:49:15;6.28;;;1.50;;
8694;SDS011;65580;49.446;6.854;2022-12-29T20:53:36;10.55;;;1.60;;
8694;SDS011;65580;49.446;6.854;2022-12-29T20:57:45;9.32;;;1.60;;
8694;SDS011;65580;49.446;6.854;2022-12-29T21:02:17;8.00;;;1.50;;
8694;SDS011;65580;49.446;6.854;2022-12-29T21:06:25;12.50;;;2.00;;
8694;SDS011;65580;49.446;6.854;2022-12-29T21:10:39;10.02;;;1.50;;
8694;SDS011;65580;49.446;6.854;2022-12-29T21:15:16;9.18;;;1.60;;
8694;SDS011;65580;49.446;6.854;2022-12-29T21:19:35;11.65;;;1.80;;
8694;SDS011;65580;49.446;6.854;2022-12-29T21:23:46;10.75;;;2.00;;
8694;SDS011;65580;49.446;6.854;2022-12-29T21:28:06;12.50;;;1.98;;
8694;SDS011;65580;49.446;6.854;2022-12-29T21:32:24;13.48;;;1.80;;
8694;SDS011;65580;49.446;6.854;2022-12-29T21:36:28;9.18;;;1.55;;
8694;SDS011;65580;49.446;6.854;2022-12-29T21:44:56;8.98;;;1.30;;
8694;SDS011;65580;49.446;6.854;2022-12-29T21:49:21;10.68;;;1.90;;
8694;SDS011;65580;49.446;6.854;2022-12-29T21:53:28;10.55;;;1.60;;
8694;SDS011;65580;49.446;6.854;2022-12-29T21:57:46;9.88;;;1.70;;
8694;SDS011;65580;49.446;6.854;2022-12-29T22:02:17;13.60;;;1.90;;
8694;SDS011;65580;49.446;6.854;2022-12-29T22:06:43;12.55;;;2.08;;
8694;SDS011;65580;49.446;6.854;2022-12-29T22:11:09;15.57;;;2.28;;
8694;SDS011;65580;49.446;6.854;2022-12-29T22:15:31;11.55;;;1.77;;
8694;SDS011;65580;49.446;6.854;2022-12-29T22:19:48;10.77;;;2.28;;
8694;SDS011;65580;49.446;6.854;2022-12-29T22:23:56;7.32;;;1.55;;
8694;SDS011;65580;49.446;6.854;2022-12-29T22:28:05;10.20;;;1.75;;
8694;SDS011;65580;49.446;6.854;2022-12-29T22:32:09;14.38;;;2.08;;
8694;SDS011;65580;49.446;6.854;2022-12-29T22:36:18;9.55;;;1.50;;
8694;SDS011;65580;49.446;6.854;2022-12-29T22:40:25;13.50;;;2.45;;
8694;SDS011;65580;49.446;6.854;2022-12-29T22:44:38;17.00;;;2.40;;
8694;SDS011;65580;49.446;6.854;2022-12-29T22:48:46;12.55;;;2.33;;
8694;SDS011;65580;49.446;6.854;2022-12-29T22:53:13;16.33;;;2.65;;
8694;SDS011;65580;49.446;6.854;2022-12-29T22:57:27;12.63;;;2.33;;
8694;SDS011;65580;49.446;6.854;2022-12-29T23:01:32;9.52;;;2.08;;
8694;SDS011;65580;49.446;6.854;2022-12-29T23:05:37;12.40;;;2.53;;
8694;SDS011;65580;49.446;6.854;2022-12-29T23:09:52;12.20;;;2.83;;
8694;SDS011;65580;49.446;6.854;2022-12-29T23:13:59;14.23;;;4.10;;
8694;SDS011;65580;49.446;6.854;2022-12-29T23:18:08;15.13;;;3.05;;
8694;SDS011;65580;49.446;6.854;2022-12-29T23:22:18;14.43;;;3.45;;
8694;SDS011;65580;49.446;6.854;2022-12-29T23:26:33;12.55;;;2.45;;
8694;SDS011;65580;49.446;6.854;2022-12-29T23:30:44;12.10;;;1.98;;
8694;SDS011;65580;49.446;6.854;2022-12-29T23:34:49;14.27;;;2.60;;
8694;SDS011;65580;49.446;6.854;2022-12-29T23:38:53;12.40;;;1.75;;
8694;SDS011;65580;49.446;6.854;2022-12-29T23:43:04;14.68;;;2.03;;
8694;SDS011;65580;49.446;6.854;2022-12-29T23:47:13;15.20;;;2.25;;
8694;SDS011;65580;49.446;6.854;2022-12-29T23:51:23;8.10;;;1.90;;
8694;SDS011;65580;49.446;6.854;2022-12-29T23:55:28;13.80;;;1.90;;
